Time;durP1;ratioP1;P1;durP2;ratioP2;P2;SDS_P1;SDS_P2;PMS_P1;PMS_P2;Temp;Humidity;BMP_temperature;BMP_pressure;BME280_temperature;BME280_humidity;BME280_pressure;Samples;Min_cycle;Max_cycle;Signal;HPM_P1;HPM_P2
2022/07/31 00:02:24;;;;;;;;;2.00;2.00;;;;;26.43;32.87;101482.03;5007634;28;45383;-51
2022/07/31 00:04:49;;;;;;;;;3.00;2.50;;;;;26.33;32.25;101458.53;5015470;28;47233;-53
2022/07/31 00:07:15;;;;;;;;;2.00;2.00;;;;;26.36;32.73;101475.31;5000281;28;45278;-53
2022/07/31 00:09:40;;;;;;;;;1.00;1.00;;;;;26.33;32.77;101475.56;5000430;28;45526;-51
2022/07/31 00:12:06;;;;;;;;;1.50;1.50;;;;;26.32;33.06;101478.38;4998946;28;45515;-53
2022/07/31 00:14:31;;;;;;;;;3.50;2.00;;;;;26.28;32.59;101464.25;5000250;28;45321;-55
2022/07/31 00:16:56;;;;;;;;;2.00;1.00;;;;;26.23;32.40;101469.94;5015218;28;45460;-54
2022/07/31 00:19:22;;;;;;;;;1.75;1.75;;;;;26.21;32.51;101463.81;5000284;28;45234;-53
2022/07/31 00:21:47;;;;;;;;;1.00;1.00;;;;;26.18;32.92;101472.09;5000080;28;45498;-54
2022/07/31 00:24:13;;;;;;;;;1.00;1.00;;;;;26.16;33.21;101465.94;4999814;28;47915;-54
2022/07/31 00:26:39;;;;;;;;;2.00;2.00;;;;;26.13;33.39;101463.47;5000045;28;45266;-54
2022/07/31 00:29:05;;;;;;;;;0.00;0.00;;;;;26.09;33.43;101468.19;5015575;28;45259;-54
2022/07/31 00:31:30;;;;;;;;;2.00;2.00;;;;;26.04;33.27;101461.38;4999751;28;45179;-54
2022/07/31 00:33:56;;;;;;;;;1.00;1.00;;;;;26.03;33.46;101470.44;4999730;28;45434;-53
2022/07/31 00:36:21;;;;;;;;;1.00;1.00;;;;;25.99;33.47;101460.81;4999960;28;46531;-55
2022/07/31 00:38:46;;;;;;;;;0.50;0.25;;;;;25.98;33.56;101461.81;5000130;28;45205;-55
2022/07/31 00:41:12;;;;;;;;;0.75;0.75;;;;;25.95;33.16;101461.03;4999823;28;45241;-56
2022/07/31 00:43:37;;;;;;;;;1.00;1.00;;;;;25.92;33.72;101463.06;4999706;28;46234;-57
2022/07/31 00:46:03;;;;;;;;;0.50;0.50;;;;;25.91;33.22;101456.84;4999799;28;45262;-56
2022/07/31 00:48:28;;;;;;;;;11.50;11.50;;;;;25.88;33.32;101457.03;4999713;28;45403;-56
2022/07/31 00:50:55;;;;;;;;;0.25;0.25;;;;;25.87;33.35;101452.59;5010383;28;45460;-57
2022/07/31 00:53:20;;;;;;;;;1.25;1.25;;;;;25.85;33.29;101462.63;5009018;28;45415;-57
2022/07/31 00:55:45;;;;;;;;;1.00;1.00;;;;;25.83;33.27;101463.69;4999554;28;45296;-57
2022/07/31 00:58:10;;;;;;;;;1.00;1.00;;;;;25.82;33.77;101459.28;4999896;28;45248;-57
2022/07/31 01:00:36;;;;;;;;;1.50;1.00;;;;;25.78;33.83;101464.84;4999515;28;45259;-57
2022/07/31 01:03:01;;;;;;;;;1.00;1.00;;;;;25.76;33.95;101465.94;5006424;28;46169;-57
2022/07/31 01:05:26;;;;;;;;;1.25;1.25;;;;;25.75;33.46;101466.91;4999549;28;45254;-57
2022/07/31 01:07:52;;;;;;;;;2.00;1.25;;;;;25.73;34.16;101455.38;5001664;28;45416;-58
2022/07/31 01:11:00;;;;;;;;;2.00;2.00;;;;;25.70;33.61;101461.84;5002911;28;45632;-57
2022/07/31 01:13:42;;;;;;;;;0.00;0.00;;;;;25.68;33.71;101468.28;4976012;28;45656;-57
2022/07/31 01:16:10;;;;;;;;;1.00;0.50;;;;;25.66;34.17;101462.13;5002912;28;45393;-57
2022/07/31 01:18:37;;;;;;;;;0.75;0.75;;;;;25.63;33.80;101461.41;5002620;28;45228;-57
2022/07/31 01:21:07;;;;;;;;;1.25;1.25;;;;;25.62;34.26;101462.34;5002703;28;45168;-57
2022/07/31 01:23:39;;;;;;;;;1.00;1.00;;;;;25.60;34.22;101449.97;5002819;28;45380;-57
2022/07/31 01:26:37;;;;;;;;;1.00;1.00;;;;;25.59;33.80;101456.31;5002569;28;45326;-57
2022/07/31 01:29:15;;;;;;;;;1.50;1.50;;;;;25.56;34.13;101460.06;5002771;28;45388;-57
2022/07/31 01:32:04;;;;;;;;;1.25;1.25;;;;;25.54;34.13;101461.97;5002537;28;45573;-57
2022/07/31 01:34:56;;;;;;;;;1.00;1.00;;;;;25.52;34.43;101463.06;5002419;28;46402;-57
2022/07/31 01:37:43;;;;;;;;;3.00;1.00;;;;;25.51;34.12;101472.09;5002515;28;45227;-57
2022/07/31 01:40:13;;;;;;;;;1.00;0.25;;;;;25.45;34.41;101474.22;5002757;28;45423;-57
2022/07/31 01:42:43;;;;;;;;;1.00;1.00;;;;;25.45;34.28;101473.38;5002233;28;45434;-57
2022/07/31 01:45:13;;;;;;;;;1.00;1.00;;;;;25.43;34.31;101475.28;5002313;28;45429;-57
2022/07/31 01:47:40;;;;;;;;;3.00;2.00;;;;;25.41;34.38;101477.22;5001486;28;45255;-57
2022/07/31 01:50:07;;;;;;;;;1.50;1.50;;;;;25.39;34.34;101468.38;5023405;28;45193;-58
2022/07/31 01:52:34;;;;;;;;;0.25;0.25;;;;;25.36;34.24;101464.06;5017104;28;45278;-57
2022/07/31 01:55:02;;;;;;;;;1.00;1.00;;;;;25.31;34.74;101458.94;5002519;28;45344;-57
2022/07/31 01:57:31;;;;;;;;;0.00;0.00;;;;;25.33;34.90;101474.97;5002163;28;45347;-58
2022/07/31 02:00:00;;;;;;;;;1.75;1.00;;;;;25.29;34.78;101468.94;5002308;28;45319;-57
2022/07/31 02:02:28;;;;;;;;;1.00;1.00;;;;;25.28;34.75;101469.91;5009178;28;45428;-57
2022/07/31 02:04:55;;;;;;;;;1.00;1.00;;;;;25.25;34.80;101467.41;5002105;28;45402;-57
2022/07/31 02:07:21;;;;;;;;;1.00;1.00;;;;;25.24;35.19;101464.84;5000734;28;45259;-57
2022/07/31 02:09:48;;;;;;;;;1.00;1.00;;;;;25.22;34.89;101469.44;5002262;28;45310;-57
2022/07/31 02:12:15;;;;;;;;;0.25;0.25;;;;;25.20;34.60;101468.69;5000242;28;45468;-57
2022/07/31 02:14:42;;;;;;;;;0.75;0.75;;;;;25.18;35.01;101466.06;5001861;28;46246;-58
2022/07/31 02:17:10;;;;;;;;;2.50;1.75;;;;;25.14;34.74;101464.56;5001739;28;45373;-57
2022/07/31 02:19:39;;;;;;;;;0.50;0.50;;;;;25.13;35.08;101468.22;5001353;28;45229;-57
2022/07/31 02:22:05;;;;;;;;;0.75;0.75;;;;;25.10;34.88;101460.34;5001856;28;45341;-57
2022/07/31 02:24:31;;;;;;;;;1.00;1.00;;;;;25.09;34.96;101466.69;5001627;28;47370;-57
2022/07/31 02:26:57;;;;;;;;;1.00;1.00;;;;;25.06;35.10;101466.91;5001907;28;45521;-57
2022/07/31 02:29:24;;;;;;;;;1.00;1.00;;;;;25.03;35.07;101462.59;5001866;28;45324;-57
2022/07/31 02:31:54;;;;;;;;;3.00;2.00;;;;;25.03;35.49;101462.59;5001554;28;45533;-56
2022/07/31 02:34:21;;;;;;;;;1.00;1.00;;;;;24.99;35.23;101472.66;5001608;28;47086;-57
2022/07/31 02:36:47;;;;;;;;;2.00;2.00;;;;;24.97;35.29;101466.50;5001696;28;45336;-56
2022/07/31 02:39:14;;;;;;;;;1.00;1.00;;;;;24.93;35.19;101465.00;5001764;28;45351;-56
2022/07/31 02:41:40;;;;;;;;;2.00;2.00;;;;;24.92;35.56;101465.94;5016987;28;45570;-56
2022/07/31 02:44:07;;;;;;;;;2.00;1.00;;;;;24.90;35.40;101472.38;5001378;28;46203;-56
2022/07/31 02:46:34;;;;;;;;;1.00;0.75;;;;;24.87;35.60;101461.81;5001482;28;45259;-56
2022/07/31 02:49:00;;;;;;;;;1.25;1.00;;;;;24.84;35.65;101465.56;5001367;28;45350;-55
2022/07/31 02:51:27;;;;;;;;;0.75;0.75;;;;;24.80;35.64;101461.34;5017528;28;45483;-55
2022/07/31 02:53:52;;;;;;;;;1.00;1.00;;;;;24.77;36.03;101457.03;5006795;28;45421;-55
2022/07/31 02:56:18;;;;;;;;;0.50;0.50;;;;;24.75;35.64;101466.13;5001284;28;45333;-53
2022/07/31 02:58:43;;;;;;;;;0.25;0.25;;;;;24.70;36.11;101466.41;5001520;28;45179;-54
2022/07/31 03:01:09;;;;;;;;;0.50;0.50;;;;;24.69;36.02;101453.09;5003420;28;45586;-56
2022/07/31 03:03:34;;;;;;;;;3.00;1.25;;;;;24.66;35.85;101440.72;5005837;28;46089;-53
2022/07/31 03:06:00;;;;;;;;;1.00;1.00;;;;;24.64;36.08;101446.19;5016556;28;45326;-54
2022/07/31 03:08:28;;;;;;;;;2.00;1.00;;;;;24.61;36.09;101451.69;5001542;28;45287;-53
2022/07/31 03:10:54;;;;;;;;;2.50;1.50;;;;;24.59;36.13;101450.97;5001138;28;45422;-53
2022/07/31 03:13:23;;;;;;;;;2.00;1.00;;;;;24.53;36.09;101447.78;5000864;28;46341;-54
2022/07/31 03:15:50;;;;;;;;;2.00;2.00;;;;;24.52;36.43;101446.06;5000904;28;45207;-53
2022/07/31 03:18:17;;;;;;;;;1.00;1.00;;;;;24.48;36.57;101448.06;5000823;28;45370;-54
2022/07/31 03:20:44;;;;;;;;;1.00;1.00;;;;;24.45;36.29;101449.13;5000857;28;45172;-53
2022/07/31 03:23:12;;;;;;;;;1.00;1.00;;;;;24.43;36.43;101444.81;5000852;28;46114;-52
2022/07/31 03:25:39;;;;;;;;;1.00;1.00;;;;;24.40;36.50;101453.03;5000829;28;45324;-53
2022/07/31 03:28:05;;;;;;;;;2.00;2.00;;;;;24.37;36.42;101448.72;5000992;28;45230;-54
2022/07/31 03:30:30;;;;;;;;;1.00;1.00;;;;;24.34;36.55;101447.09;4999667;28;45475;-53
2022/07/31 03:32:56;;;;;;;;;1.00;1.00;;;;;24.30;36.81;101437.50;5015408;28;47208;-53
2022/07/31 03:35:23;;;;;;;;;1.00;1.00;;;;;24.25;36.82;101450.34;5000915;28;45171;-54
2022/07/31 03:37:48;;;;;;;;;1.00;1.00;;;;;24.21;36.84;101451.47;5000829;28;45533;-54
2022/07/31 03:40:14;;;;;;;;;2.00;1.00;;;;;24.19;36.87;101456.09;5000697;28;45643;-52
2022/07/31 03:42:40;;;;;;;;;3.50;1.75;;;;;24.15;36.97;101451.84;5000464;28;45372;-54
2022/07/31 03:45:08;;;;;;;;;2.50;2.00;;;;;24.11;36.68;101436.88;5000704;28;45269;-53
2022/07/31 03:47:34;;;;;;;;;2.00;2.00;;;;;24.10;37.21;101449.47;5000301;28;45168;-53
2022/07/31 03:50:00;;;;;;;;;1.00;1.00;;;;;24.07;37.26;101446.09;5005729;28;45570;-54
2022/07/31 03:52:26;;;;;;;;;3.00;2.00;;;;;24.01;37.14;101434.78;5017135;28;45354;-54
2022/07/31 03:54:52;;;;;;;;;2.50;2.25;;;;;23.99;37.30;101439.34;5000538;28;45318;-53
2022/07/31 03:57:19;;;;;;;;;3.25;3.25;;;;;23.94;37.09;101433.41;5000293;28;45507;-52
2022/07/31 03:59:45;;;;;;;;;2.00;2.00;;;;;23.93;37.51;101433.50;5000019;28;45499;-53
2022/07/31 04:02:11;;;;;;;;;4.25;3.00;;;;;23.91;37.56;101436.28;5006225;28;46233;-52
2022/07/31 04:04:37;;;;;;;;;3.25;3.00;;;;;23.89;37.66;101438.16;5000478;28;45504;-53
2022/07/31 04:07:04;;;;;;;;;5.00;3.50;;;;;23.87;37.70;101445.41;5000371;28;45417;-52
2022/07/31 04:09:29;;;;;;;;;5.75;5.00;;;;;23.84;38.07;101449.16;5000408;28;45229;-50
2022/07/31 04:11:54;;;;;;;;;5.00;4.50;;;;;23.81;38.21;101449.34;4998867;28;47037;-53
2022/07/31 04:14:20;;;;;;;;;6.75;5.50;;;;;23.78;38.03;101454.03;5000221;28;45389;-50
2022/07/31 04:16:45;;;;;;;;;6.75;5.50;;;;;23.74;38.05;101456.03;5000011;28;45268;-53
2022/07/31 04:19:10;;;;;;;;;6.00;6.00;;;;;23.70;38.11;101447.28;4998490;28;45400;-54
2022/07/31 04:21:36;;;;;;;;;8.75;8.75;;;;;23.65;38.49;101441.31;4999982;28;46399;-53
2022/07/31 04:24:01;;;;;;;;;6.50;5.50;;;;;23.63;38.42;101439.69;4999956;28;45243;-53
2022/07/31 04:26:28;;;;;;;;;7.50;7.00;;;;;23.58;38.48;101437.25;5000217;28;45365;-53
2022/07/31 04:28:53;;;;;;;;;7.00;7.00;;;;;23.53;38.84;101440.22;5000123;28;45408;-53
2022/07/31 04:31:18;;;;;;;;;10.50;8.75;;;;;23.48;38.72;101434.28;4999619;28;45350;-53
2022/07/31 04:33:44;;;;;;;;;7.50;6.75;;;;;23.45;38.97;101431.75;4999421;28;45273;-53
2022/07/31 04:36:09;;;;;;;;;10.00;10.00;;;;;23.42;39.15;101433.75;5000092;28;45269;-54
2022/07/31 04:38:35;;;;;;;;;9.00;9.00;;;;;23.36;39.08;101443.88;4999982;28;45281;-54
2022/07/31 04:41:00;;;;;;;;;11.25;11.25;;;;;23.30;39.53;101438.00;4999698;28;45420;-54
2022/07/31 04:43:25;;;;;;;;;10.75;10.25;;;;;23.25;39.49;101440.09;5002429;28;45300;-53
2022/07/31 04:45:51;;;;;;;;;13.50;13.50;;;;;23.18;39.75;101445.78;5003273;28;45468;-52
2022/07/31 04:48:16;;;;;;;;;13.00;12.00;;;;;23.11;39.83;101452.41;5003073;28;45450;-52
2022/07/31 04:50:42;;;;;;;;;12.25;12.25;;;;;23.03;39.85;101452.84;5013631;28;45314;-53
2022/07/31 04:53:07;;;;;;;;;10.50;10.00;;;;;23.00;40.17;101461.03;5014426;28;45267;-53
2022/07/31 04:55:32;;;;;;;;;14.75;14.75;;;;;22.94;40.16;101461.38;5003382;28;45691;-54
2022/07/31 04:57:58;;;;;;;;;12.50;12.00;;;;;22.88;40.65;101448.34;5003237;28;45361;-53
2022/07/31 05:00:23;;;;;;;;;15.25;12.75;;;;;22.84;40.49;101447.63;5003018;28;45495;-54
2022/07/31 05:02:49;;;;;;;;;10.50;10.50;;;;;22.82;40.65;101454.88;5010498;28;45320;-54
2022/07/31 05:05:16;;;;;;;;;11.75;10.75;;;;;22.78;40.49;101449.75;5003332;28;45269;-53
2022/07/31 05:07:41;;;;;;;;;13.75;12.75;;;;;22.73;40.22;101453.56;5002936;28;45409;-53
2022/07/31 05:10:07;;;;;;;;;12.50;11.75;;;;;22.69;40.62;101456.50;5002725;28;46295;-54
2022/07/31 05:12:32;;;;;;;;;11.50;11.50;;;;;22.67;40.96;101455.72;5002978;28;45234;-52
2022/07/31 05:14:58;;;;;;;;;11.25;11.25;;;;;22.61;41.23;101456.91;5002956;28;46843;-53
2022/07/31 05:17:23;;;;;;;;;12.75;12.25;;;;;22.58;41.38;101449.06;5002790;28;45536;-53
2022/07/31 05:19:48;;;;;;;;;13.00;13.00;;;;;22.55;40.95;101452.75;5001332;28;45853;-54
2022/07/31 05:22:14;;;;;;;;;9.75;9.75;;;;;22.54;41.57;101458.16;5017108;28;45673;-52
2022/07/31 05:24:39;;;;;;;;;14.25;12.75;;;;;22.52;41.25;101444.88;5002681;28;45299;-50
2022/07/31 05:27:05;;;;;;;;;11.25;9.25;;;;;22.53;41.49;101445.75;5002346;28;52092;-54
2022/07/31 05:29:32;;;;;;;;;8.25;8.25;;;;;22.51;41.87;101444.97;5002496;28;46239;-53
2022/07/31 05:31:57;;;;;;;;;9.75;8.25;;;;;22.50;41.49;101449.47;5002301;28;45387;-51
2022/07/31 05:34:22;;;;;;;;;9.75;9.75;;;;;22.50;41.38;101452.16;5002511;28;45330;-51
2022/07/31 05:36:48;;;;;;;;;10.00;10.00;;;;;22.52;41.87;101457.41;5002413;28;51890;-52
2022/07/31 05:39:13;;;;;;;;;10.00;8.75;;;;;22.51;41.68;101453.00;5002350;28;45303;-53
2022/07/31 05:41:38;;;;;;;;;6.50;6.50;;;;;22.53;42.19;101453.78;5002641;28;45234;-53
2022/07/31 05:44:04;;;;;;;;;9.25;9.25;;;;;22.53;42.03;101457.31;5002502;28;45238;-54
2022/07/31 05:46:29;;;;;;;;;9.00;9.00;;;;;22.53;42.18;101454.66;5000658;28;45337;-54
2022/07/31 05:48:55;;;;;;;;;8.00;7.25;;;;;22.56;41.91;101450.94;5017233;28;47552;-53
2022/07/31 05:51:20;;;;;;;;;11.00;10.00;;;;;22.57;42.41;101452.66;5016782;28;45378;-51
2022/07/31 05:53:47;;;;;;;;;11.50;11.50;;;;;22.60;42.18;101454.31;5005753;28;45362;-52
2022/07/31 05:56:12;;;;;;;;;10.50;8.50;;;;;22.60;41.97;101448.97;5002408;28;45162;-53
2022/07/31 05:58:37;;;;;;;;;9.25;9.00;;;;;22.61;42.11;101448.88;5017308;28;47169;-51
2022/07/31 06:01:03;;;;;;;;;9.00;8.00;;;;;22.63;41.95;101460.38;5003877;28;45219;-54
2022/07/31 06:03:28;;;;;;;;;6.75;6.00;;;;;22.62;42.19;101455.13;5007544;28;45314;-52
2022/07/31 06:05:54;;;;;;;;;7.00;6.00;;;;;22.66;42.20;101457.53;5002082;28;45294;-53
2022/07/31 06:08:20;;;;;;;;;6.75;6.75;;;;;22.65;42.63;101468.31;5001960;28;45333;-51
2022/07/31 06:10:45;;;;;;;;;7.50;5.00;;;;;22.67;42.61;101467.28;5001789;28;45424;-52
2022/07/31 06:13:11;;;;;;;;;6.75;5.50;;;;;22.66;42.91;101468.22;5002210;28;45384;-52
2022/07/31 06:15:37;;;;;;;;;6.00;5.00;;;;;22.70;42.58;101468.94;5002177;28;45441;-51
2022/07/31 06:18:03;;;;;;;;;8.00;5.00;;;;;22.71;42.83;101473.34;5001579;28;45298;-52
2022/07/31 06:20:28;;;;;;;;;5.00;5.00;;;;;22.73;43.10;101468.78;5001558;28;45432;-53
2022/07/31 06:22:54;;;;;;;;;5.50;5.50;;;;;22.75;42.35;101460.66;5001812;28;45234;-52
2022/07/31 06:25:20;;;;;;;;;5.50;5.50;;;;;22.76;42.62;101451.69;5016975;28;45205;-53
2022/07/31 06:27:46;;;;;;;;;4.50;4.50;;;;;22.77;43.16;101443.56;5001887;28;45384;-52
2022/07/31 06:30:12;;;;;;;;;4.25;4.25;;;;;22.81;42.90;101449.63;5001795;28;45244;-50
2022/07/31 06:32:37;;;;;;;;;5.50;5.00;;;;;22.82;42.97;101462.06;5001403;28;45290;-54
2022/07/31 06:35:04;;;;;;;;;4.00;3.75;;;;;22.78;42.55;101458.69;5001673;28;45530;-53
2022/07/31 06:37:30;;;;;;;;;6.00;6.00;;;;;22.77;43.13;101470.34;5001516;28;46324;-53
2022/07/31 06:39:55;;;;;;;;;5.00;5.00;;;;;22.78;42.76;101476.56;5001642;28;45459;-54
2022/07/31 06:42:22;;;;;;;;;8.00;7.25;;;;;22.79;42.82;101472.94;5001577;28;45372;-53
2022/07/31 06:44:48;;;;;;;;;4.25;4.25;;;;;22.76;42.75;101476.66;5001742;28;45499;-49
2022/07/31 06:47:14;;;;;;;;;7.00;6.00;;;;;22.78;42.99;101481.91;5000936;28;46200;-52
2022/07/31 06:49:40;;;;;;;;;6.50;6.00;;;;;22.73;43.01;101466.97;5003608;28;45360;-53
2022/07/31 06:52:06;;;;;;;;;7.00;5.00;;;;;22.80;42.99;101478.19;5020835;28;45245;-54
2022/07/31 06:54:31;;;;;;;;;8.00;6.00;;;;;22.81;42.61;101465.69;5001526;28;45450;-54
2022/07/31 06:56:56;;;;;;;;;4.25;4.25;;;;;22.82;43.22;101475.47;5001212;28;46268;-55
2022/07/31 06:59:22;;;;;;;;;7.00;5.00;;;;;22.84;43.01;101463.72;5001659;28;45145;-54
2022/07/31 07:01:47;;;;;;;;;5.50;5.50;;;;;22.85;43.03;101464.56;5008709;28;45467;-53
2022/07/31 07:04:12;;;;;;;;;4.00;3.50;;;;;22.84;42.85;101471.75;5001220;28;45420;-52
2022/07/31 07:06:38;;;;;;;;;4.25;4.25;;;;;22.85;42.92;101467.25;5000899;28;45967;-54
2022/07/31 07:09:03;;;;;;;;;4.00;4.00;;;;;22.84;43.11;101469.06;5001418;28;45322;-54
2022/07/31 07:11:28;;;;;;;;;4.75;4.75;;;;;22.84;43.00;101470.88;5001303;28;45432;-54
2022/07/31 07:13:54;;;;;;;;;6.25;4.75;;;;;22.85;43.13;101475.28;5001138;28;45331;-50
2022/07/31 07:16:19;;;;;;;;;5.50;4.00;;;;;22.85;43.02;101477.97;5000836;28;46285;-53
2022/07/31 07:18:45;;;;;;;;;5.75;4.50;;;;;22.86;43.10;101485.06;5000883;28;45435;-54
2022/07/31 07:21:11;;;;;;;;;6.00;6.00;;;;;22.90;43.59;101491.97;5001066;28;45298;-54
2022/07/31 07:23:36;;;;;;;;;5.00;5.00;;;;;22.94;43.09;101488.16;5000949;28;45569;-53
2022/07/31 07:26:02;;;;;;;;;4.50;4.50;;;;;22.97;43.03;101492.53;5000779;28;46970;-54
2022/07/31 07:28:28;;;;;;;;;5.25;5.25;;;;;22.95;42.79;101494.41;5000914;28;45468;-54
2022/07/31 07:30:54;;;;;;;;;5.25;5.00;;;;;22.93;43.68;101488.25;5000661;28;45287;-53
2022/07/31 07:33:19;;;;;;;;;8.00;6.00;;;;;22.95;43.54;101475.66;5000530;28;45451;-53
2022/07/31 07:35:44;;;;;;;;;6.75;6.75;;;;;22.95;43.17;101479.19;5000612;28;45283;-52
2022/07/31 07:38:10;;;;;;;;;7.00;6.50;;;;;22.99;43.32;101487.94;5000638;28;45245;-52
2022/07/31 07:40:35;;;;;;;;;5.50;5.50;;;;;22.92;43.51;101483.84;5000808;28;45234;-54
2022/07/31 07:43:00;;;;;;;;;6.50;4.00;;;;;22.99;43.55;101490.59;5000557;28;45167;-53
2022/07/31 07:45:26;;;;;;;;;8.00;6.75;;;;;22.98;43.00;101492.44;5015752;28;46247;-54
2022/07/31 07:47:51;;;;;;;;;4.00;4.00;;;;;22.97;42.44;101488.00;5000096;28;45264;-53
2022/07/31 07:50:17;;;;;;;;;6.75;6.00;;;;;23.01;43.46;101489.56;5007778;28;45294;-52
2022/07/31 07:52:43;;;;;;;;;6.25;6.25;;;;;23.05;43.34;101492.94;5014739;28;45221;-53
2022/07/31 07:55:11;;;;;;;;;7.75;6.50;;;;;23.07;43.43;101487.50;4999054;28;47629;-53
2022/07/31 07:57:36;;;;;;;;;7.50;5.25;;;;;23.05;43.05;101496.47;5000223;28;45394;-54
2022/07/31 08:00:06;;;;;;;;;7.00;6.25;;;;;23.07;43.20;101496.41;5000505;28;45583;-52
2022/07/31 08:02:31;;;;;;;;;2.75;2.50;;;;;23.07;43.42;101500.91;5007290;28;45610;-52
2022/07/31 08:04:57;;;;;;;;;6.50;5.50;;;;;23.05;43.17;101492.94;5000121;28;45219;-53
2022/07/31 08:07:27;;;;;;;;;6.50;6.00;;;;;23.04;43.32;101489.41;5000210;28;45243;-53
2022/07/31 08:09:53;;;;;;;;;5.75;5.50;;;;;23.01;43.44;101492.25;5000411;28;45348;-50
2022/07/31 08:12:18;;;;;;;;;5.25;5.00;;;;;23.03;42.96;101498.41;5014682;28;45314;-53
2022/07/31 08:14:43;;;;;;;;;8.25;7.00;;;;;23.03;43.10;101493.03;4999920;28;46966;-54
2022/07/31 08:17:12;;;;;;;;;6.00;5.00;;;;;23.05;42.92;101499.16;4998924;28;49495;-54
2022/07/31 08:19:39;;;;;;;;;7.00;6.00;;;;;23.06;43.05;101497.38;5000385;28;45186;-53
2022/07/31 08:22:04;;;;;;;;;5.75;5.75;;;;;23.11;42.65;101500.66;4999989;28;45317;-54
2022/07/31 08:24:29;;;;;;;;;7.50;7.50;;;;;23.13;42.97;101492.53;4999781;28;46141;-54
2022/07/31 08:29:39;;;;;;;;;8.75;7.25;;;;;23.20;42.86;101488.59;5000347;28;45417;-53
2022/07/31 08:32:05;;;;;;;;;6.25;6.25;;;;;23.23;42.70;101493.75;4999605;28;45454;-54
2022/07/31 08:34:30;;;;;;;;;8.25;7.25;;;;;23.30;42.54;101491.63;4999893;28;46297;-54
2022/07/31 08:36:55;;;;;;;;;6.50;6.25;;;;;23.35;42.70;101485.03;5015306;28;45937;-53
2022/07/31 08:39:21;;;;;;;;;7.25;7.00;;;;;23.40;42.74;101479.44;5000040;28;45510;-55
2022/07/31 08:41:46;;;;;;;;;8.00;7.00;;;;;23.44;42.59;101475.59;5000074;28;45438;-52
2022/07/31 08:44:11;;;;;;;;;8.00;6.00;;;;;23.46;42.05;101483.56;4999657;28;45331;-53
2022/07/31 08:46:38;;;;;;;;;8.00;5.75;;;;;23.53;42.30;101484.94;4999695;28;45424;-54
2022/07/31 08:49:05;;;;;;;;;7.75;7.75;;;;;23.59;42.70;101486.44;5000154;28;45329;-54
2022/07/31 08:51:35;;;;;;;;;8.25;7.25;;;;;23.65;42.55;101476.19;5016776;28;45177;-53
2022/07/31 08:54:02;;;;;;;;;5.25;5.25;;;;;23.69;42.62;101475.06;5003294;28;46306;-54
2022/07/31 08:56:28;;;;;;;;;6.75;6.75;;;;;23.77;42.47;101476.44;4998322;28;45333;-54
2022/07/31 08:58:56;;;;;;;;;7.50;5.75;;;;;23.86;42.54;101482.13;4999702;28;45449;-52
2022/07/31 09:01:21;;;;;;;;;7.50;7.50;;;;;23.94;42.43;101467.44;5003774;28;45255;-53
2022/07/31 09:03:47;;;;;;;;;9.75;8.25;;;;;23.98;42.13;101485.09;5002629;28;45432;-51
2022/07/31 09:06:12;;;;;;;;;7.25;6.00;;;;;24.07;42.37;101489.88;4999683;28;45344;-52
2022/07/31 09:08:38;;;;;;;;;6.00;6.00;;;;;24.11;42.40;101482.53;4999606;28;45424;-54
2022/07/31 09:11:12;;;;;;;;;8.00;8.00;;;;;24.14;41.95;101485.03;5014813;28;45452;-54
2022/07/31 09:13:39;;;;;;;;;8.50;8.50;;;;;24.22;42.14;101487.25;4999346;28;45909;-54
2022/07/31 09:16:05;;;;;;;;;10.50;9.00;;;;;24.23;41.80;101489.84;4999522;28;45365;-54
2022/07/31 09:18:30;;;;;;;;;8.00;8.00;;;;;24.28;41.56;101487.75;4999163;28;45502;-54
2022/07/31 09:21:02;;;;;;;;;10.00;8.00;;;;;24.29;41.38;101483.25;4999328;28;45336;-54
2022/07/31 09:23:29;;;;;;;;;8.50;7.50;;;;;24.31;42.12;101484.88;4999147;28;46148;-53
2022/07/31 09:25:56;;;;;;;;;7.00;7.00;;;;;24.29;41.85;101484.09;4999351;28;45368;-54
2022/07/31 09:28:40;;;;;;;;;8.00;8.00;;;;;24.32;41.68;101483.06;5000382;28;45404;-54
2022/07/31 09:31:08;;;;;;;;;8.50;8.50;;;;;24.34;41.84;101473.09;5002463;28;45470;-54
2022/07/31 09:33:37;;;;;;;;;7.50;7.50;;;;;24.41;41.83;101478.94;5002297;28;45299;-54
2022/07/31 09:36:03;;;;;;;;;9.25;8.25;;;;;24.47;41.79;101475.88;5001248;28;45673;-54
2022/07/31 09:38:38;;;;;;;;;9.25;9.25;;;;;24.52;41.73;101479.16;5001397;28;45493;-53
2022/07/31 09:41:09;;;;;;;;;7.25;7.00;;;;;24.63;41.79;101482.03;5002384;28;45310;-52
2022/07/31 09:43:35;;;;;;;;;6.00;6.00;;;;;24.67;41.72;101480.91;5002169;28;46136;-53
2022/07/31 09:46:03;;;;;;;;;9.50;9.00;;;;;24.75;41.52;101483.13;5002278;28;45194;-54
2022/07/31 09:48:28;;;;;;;;;12.00;10.50;;;;;24.77;41.52;101477.66;5002323;28;45234;-54
2022/07/31 09:50:56;;;;;;;;;11.25;11.00;;;;;24.86;41.31;101481.59;5014121;28;45408;-52
2022/07/31 09:53:22;;;;;;;;;12.75;11.25;;;;;24.89;41.33;101490.34;5011173;28;46060;-55
2022/07/31 09:55:52;;;;;;;;;9.00;8.75;;;;;24.91;40.99;101480.34;5001522;28;45361;-54
2022/07/31 09:58:18;;;;;;;;;9.00;8.00;;;;;24.96;41.01;101490.81;5002225;28;45267;-54
2022/07/31 10:00:45;;;;;;;;;9.00;7.50;;;;;25.01;41.11;101487.84;5001603;28;45389;-54
2022/07/31 10:03:12;;;;;;;;;7.50;7.50;;;;;25.02;40.85;101484.16;5009032;28;46380;-54
2022/07/31 10:05:40;;;;;;;;;9.75;8.75;;;;;25.07;41.17;101480.22;5001715;28;45479;-54
2022/07/31 10:08:07;;;;;;;;;13.00;13.00;;;;;25.13;41.35;101489.72;5001989;28;45512;-53
2022/07/31 10:10:34;;;;;;;;;19.25;18.75;;;;;25.17;41.06;101482.31;5000062;28;45554;-55
2022/07/31 10:13:05;;;;;;;;;14.00;14.00;;;;;25.22;41.18;101477.50;5000618;28;45344;-55
2022/07/31 10:15:34;;;;;;;;;10.50;10.50;;;;;25.25;40.36;101477.31;5001960;28;45287;-54
2022/07/31 10:18:01;;;;;;;;;10.00;10.00;;;;;25.31;40.97;101471.53;5000060;28;45478;-55
2022/07/31 10:20:27;;;;;;;;;8.50;8.50;;;;;25.36;40.52;101480.22;5001512;28;45261;-55
2022/07/31 10:22:55;;;;;;;;;11.50;8.25;;;;;25.42;40.37;101477.13;5001563;28;45276;-56
2022/07/31 10:25:25;;;;;;;;;10.00;9.75;;;;;25.48;40.18;101475.84;5001906;28;45375;-55
2022/07/31 10:27:52;;;;;;;;;11.50;9.50;;;;;25.49;40.23;101474.03;5001605;28;45340;-56
2022/07/31 10:30:18;;;;;;;;;11.25;9.75;;;;;25.57;40.07;101474.38;5001714;28;45424;-55
2022/07/31 10:32:44;;;;;;;;;11.50;11.50;;;;;25.70;40.47;101471.72;5000952;28;45289;-55
2022/07/31 10:35:10;;;;;;;;;8.25;8.25;;;;;25.79;40.38;101468.44;5001596;28;45170;-54
2022/07/31 10:37:51;;;;;;;;;12.75;11.25;;;;;25.87;40.38;101455.28;5001619;28;45190;-55
2022/07/31 10:40:40;;;;;;;;;12.50;10.50;;;;;26.02;40.48;101458.78;5000939;28;45305;-55
2022/07/31 10:43:19;;;;;;;;;11.00;9.75;;;;;26.20;40.46;101462.09;5001342;28;45306;-55
2022/07/31 10:45:49;;;;;;;;;8.25;8.25;;;;;26.46;40.68;101443.22;5001385;28;45458;-55
2022/07/31 10:48:15;;;;;;;;;10.75;9.50;;;;;26.87;41.47;101442.13;5001373;28;45169;-55
2022/07/31 10:50:40;;;;;;;;;7.25;7.00;;;;;27.40;41.77;101443.72;5010800;28;45232;-53
2022/07/31 10:53:08;;;;;;;;;14.50;12.50;;;;;27.99;41.57;101444.72;5012418;28;45979;-55
2022/07/31 10:55:34;;;;;;;;;8.00;8.00;;;;;28.60;41.60;101446.28;5001302;28;45356;-60
2022/07/31 10:58:07;;;;;;;;;11.50;11.25;;;;;29.19;41.34;101440.59;5001347;28;45400;-55
2022/07/31 11:00:32;;;;;;;;;9.50;9.50;;;;;29.73;40.39;101454.22;5001173;28;45503;-54
2022/07/31 11:02:57;;;;;;;;;9.75;9.75;;;;;30.19;40.18;101451.28;5007970;28;45340;-55
2022/07/31 11:05:26;;;;;;;;;9.00;9.00;;;;;30.55;39.56;101451.81;5001188;28;45258;-55
2022/07/31 11:08:09;;;;;;;;;5.00;5.00;;;;;30.93;38.88;101451.09;5001448;28;45455;-54
2022/07/31 11:10:34;;;;;;;;;9.50;9.25;;;;;31.31;38.27;101445.06;5000972;28;45392;-55
2022/07/31 11:13:01;;;;;;;;;8.00;8.00;;;;;31.66;37.86;101450.00;5001050;28;46019;-55
2022/07/31 11:15:27;;;;;;;;;9.00;8.00;;;;;32.03;37.92;101451.94;5016369;28;45354;-56
2022/07/31 11:17:52;;;;;;;;;10.25;10.25;;;;;32.49;38.33;101443.13;5000821;28;45412;-56
2022/07/31 11:20:29;;;;;;;;;8.75;8.75;;;;;32.94;38.15;101444.22;5001042;28;45565;-56
2022/07/31 11:23:04;;;;;;;;;8.25;8.00;;;;;33.40;37.43;101452.41;5000773;28;46463;-58
2022/07/31 11:25:33;;;;;;;;;8.00;7.25;;;;;33.81;37.04;101447.31;5000958;28;45242;-57